Time;durP1;ratioP1;P1;durP2;ratioP2;P2;SDS_P1;SDS_P2;PMS_P1;PMS_P2;Temp;Humidity;BMP_temperature;BMP_pressure;BME280_temperature;BME280_humidity;BME280_pressure;Samples;Min_cycle;Max_cycle;Signal;HPM_P1;HPM_P2
2021/05/16 04:03:03;;;;;;;3.60;3.50;;;8.30;99.90;;;;;;5134704;23;83715;-86
2021/05/16 04:05:29;;;;;;;3.88;3.67;;;8.40;99.90;;;;;;4968904;28;81677;-85
2021/05/16 04:07:55;;;;;;;3.13;3.03;;;8.40;99.90;;;;;;4969797;28;81955;-86
2021/05/16 04:10:20;;;;;;;3.53;3.33;;;8.50;99.90;;;;;;4966619;28;82111;-84
2021/05/16 04:12:46;;;;;;;4.78;3.85;;;8.60;99.90;;;;;;4960946;28;81923;-84
2021/05/16 04:15:12;;;;;;;4.40;4.20;;;8.70;99.90;;;;;;4969067;28;81848;-86
2021/05/16 04:17:38;;;;;;;3.97;3.70;;;8.80;99.90;;;;;;4951814;28;85267;-85
2021/05/16 04:20:05;;;;;;;3.25;3.05;;;8.90;99.90;;;;;;4950300;28;84611;-86
2021/05/16 04:22:31;;;;;;;3.45;3.28;;;8.90;99.90;;;;;;4966178;28;84686;-86
2021/05/16 04:24:56;;;;;;;3.38;3.05;;;8.90;99.90;;;;;;4970963;28;82403;-84
2021/05/16 04:27:22;;;;;;;3.45;3.35;;;8.90;99.90;;;;;;4964125;28;81944;-85
2021/05/16 04:29:48;;;;;;;2.92;2.83;;;8.90;99.90;;;;;;4962743;28;82725;-86
2021/05/16 04:32:14;;;;;;;3.05;2.95;;;8.90;99.90;;;;;;4942952;28;85460;-86
2021/05/16 04:34:39;;;;;;;3.60;3.40;;;8.90;99.90;;;;;;4970470;28;82014;-84
2021/05/16 04:37:05;;;;;;;4.63;4.43;;;9.00;99.90;;;;;;4969697;28;81610;-86
2021/05/16 04:39:31;;;;;;;5.53;5.15;;;9.00;99.90;;;;;;4963646;28;82684;-85
2021/05/16 04:41:56;;;;;;;4.65;4.25;;;9.10;99.90;;;;;;4960310;28;82370;-86
2021/05/16 04:44:22;;;;;;;4.70;4.50;;;9.10;99.90;;;;;;4963218;28;82960;-86
2021/05/16 04:46:48;;;;;;;4.72;4.53;;;;;;;;;;4970728;28;82015;-85
2021/05/16 04:49:15;;;;;;;4.78;4.57;;;9.10;99.90;;;;;;4968138;28;81986;-85
2021/05/16 04:51:41;;;;;;;5.30;4.03;;;;;;;;;;4965768;28;81823;-84
2021/05/16 04:54:07;;;;;;;5.00;4.70;;;9.10;99.90;;;;;;4969772;28;81912;-85
2021/05/16 04:56:32;;;;;;;4.47;4.18;;;9.10;99.90;;;;;;4970557;28;82139;-84
2021/05/16 04:58:58;;;;;;;4.70;4.50;;;9.20;99.90;;;;;;4969424;28;82245;-85
2021/05/16 05:01:24;;;;;;;4.22;4.05;;;9.30;99.90;;;;;;4966734;28;82588;-86
2021/05/16 05:03:50;;;;;;;5.00;4.65;;;9.40;99.90;;;;;;4945307;28;81913;-86
2021/05/16 05:06:16;;;;;;;5.22;5.03;;;;;;;;;;4948403;28;82113;-85
2021/05/16 05:08:42;;;;;;;5.55;5.25;;;9.50;99.90;;;;;;4949577;28;83370;-86
2021/05/16 05:11:08;;;;;;;4.32;4.03;;;9.60;99.90;;;;;;4930939;28;86083;-87
2021/05/16 05:13:34;;;;;;;3.78;3.63;;;9.70;99.90;;;;;;4952131;28;82040;-88
2021/05/16 05:15:59;;;;;;;3.50;3.30;;;9.80;99.90;;;;;;4949710;28;83247;-84
2021/05/16 05:18:25;;;;;;;4.10;3.90;;;;;;;;;;4950356;28;82574;-86
2021/05/16 05:20:51;;;;;;;4.30;4.10;;;10.00;99.90;;;;;;4951887;28;81807;-85
2021/05/16 05:23:17;;;;;;;4.07;3.88;;;10.10;99.90;;;;;;4953070;28;81812;-85
2021/05/16 05:25:43;;;;;;;4.97;4.57;;;10.10;99.90;;;;;;4951730;28;81863;-86
2021/05/16 05:28:09;;;;;;;4.15;4.05;;;10.20;99.90;;;;;;4954576;28;82188;-84
2021/05/16 05:30:34;;;;;;;4.43;4.22;;;10.20;99.90;;;;;;4929453;28;83702;-88
2021/05/16 05:33:00;;;;;;;4.45;4.22;;;10.30;99.90;;;;;;4949987;28;82419;-86
2021/05/16 05:35:26;;;;;;;4.18;4.00;;;10.40;99.90;;;;;;4946229;28;82641;-87
2021/05/16 05:37:52;;;;;;;3.10;3.00;;;10.40;99.90;;;;;;4951096;28;81657;-85
2021/05/16 05:40:18;;;;;;;3.67;3.58;;;10.60;99.90;;;;;;4951556;28;82098;-85
2021/05/16 05:42:43;;;;;;;4.03;3.85;;;10.70;99.90;;;;;;4950119;28;81803;-85
2021/05/16 05:45:10;;;;;;;3.47;3.35;;;10.80;99.90;;;;;;4952431;28;82360;-86
2021/05/16 05:47:40;;;;;;;3.22;3.03;;;10.80;99.90;;;;;;4946935;28;82656;-85
2021/05/16 05:50:07;;;;;;;3.75;3.65;;;10.90;99.90;;;;;;4952106;28;82069;-85
2021/05/16 05:52:32;;;;;;;3.97;3.80;;;10.90;99.90;;;;;;4932224;28;82315;-85
2021/05/16 05:54:58;;;;;;;3.53;3.22;;;11.00;99.90;;;;;;4948403;28;82585;-87
2021/05/16 05:57:24;;;;;;;4.95;4.75;;;11.10;99.90;;;;;;4948392;28;83350;-85
2021/05/16 05:59:50;;;;;;;4.93;4.72;;;11.20;99.90;;;;;;4950130;28;82174;-85
2021/05/16 06:02:15;;;;;;;4.18;3.97;;;11.20;99.90;;;;;;4950387;28;81508;-84
2021/05/16 06:04:41;;;;;;;5.40;5.20;;;11.30;99.90;;;;;;4950533;28;82360;-85
2021/05/16 06:07:07;;;;;;;3.95;3.65;;;11.40;99.90;;;;;;4950806;28;81848;-86
2021/05/16 06:09:35;;;;;;;6.28;6.03;;;11.50;99.90;;;;;;4948946;28;82079;-84
2021/05/16 06:12:01;;;;;;;3.95;3.75;;;11.60;99.90;;;;;;4949193;28;81969;-87
2021/05/16 06:14:26;;;;;;;4.10;3.90;;;11.80;99.90;;;;;;4944880;28;81976;-86
2021/05/16 06:16:52;;;;;;;4.10;3.90;;;11.90;99.90;;;;;;4942447;28;84211;-86
2021/05/16 06:19:18;;;;;;;5.78;5.57;;;12.20;99.90;;;;;;4939399;28;82087;-85
2021/05/16 06:21:44;;;;;;;6.45;6.25;;;12.60;99.90;;;;;;4953797;28;84387;-84
2021/05/16 06:24:10;;;;;;;5.30;5.10;;;12.80;99.90;;;;;;4944402;28;82585;-87
2021/05/16 06:26:42;;;;;;;7.38;6.97;;;13.00;99.90;;;;;;4951787;28;82389;-87
2021/05/16 06:29:12;;;;;;;5.82;5.57;;;12.90;99.90;;;;;;4949970;28;83554;-87
2021/05/16 06:31:38;;;;;;;7.50;7.20;;;12.70;99.90;;;;;;4947616;28;82049;-88
2021/05/16 06:34:04;;;;;;;6.65;6.35;;;12.70;99.90;;;;;;4951347;28;82758;-88
2021/05/16 06:36:31;;;;;;;5.65;5.45;;;12.60;99.90;;;;;;4948166;28;82533;-89
2021/05/16 06:38:57;;;;;;;4.93;4.63;;;12.80;99.90;;;;;;4952203;28;82977;-88
2021/05/16 06:41:26;;;;;;;3.63;3.42;;;13.00;99.90;;;;;;4953361;28;81881;-88
2021/05/16 06:43:52;;;;;;;4.22;4.03;;;13.20;99.90;;;;;;4948982;28;82135;-88
2021/05/16 06:46:18;;;;;;;3.80;3.70;;;13.30;99.90;;;;;;4943696;28;82678;-86
2021/05/16 06:48:44;;;;;;;3.67;3.58;;;13.50;99.90;;;;;;4939464;28;83259;-86
2021/05/16 06:51:10;;;;;;;3.90;3.70;;;13.70;99.90;;;;;;4946882;28;81927;-85
2021/05/16 06:53:36;;;;;;;4.65;4.45;;;13.80;99.90;;;;;;4944579;28;81870;-85
2021/05/16 06:56:02;;;;;;;4.10;3.90;;;14.00;99.90;;;;;;4951192;28;82784;-87
2021/05/16 06:58:30;;;;;;;10.10;9.70;;;14.20;99.90;;;;;;4950093;28;83147;-89
2021/05/16 07:00:56;;;;;;;4.13;4.00;;;14.40;99.90;;;;;;4942180;28;81978;-84
2021/05/16 07:03:22;;;;;;;5.10;4.90;;;14.30;99.90;;;;;;4949113;28;83016;-87
2021/05/16 07:05:47;;;;;;;6.55;6.25;;;14.40;99.90;;;;;;4949674;28;82153;-87
2021/05/16 07:08:13;;;;;;;7.00;6.60;;;14.50;99.90;;;;;;4941010;28;82071;-85
2021/05/16 07:10:39;;;;;;;6.97;6.68;;;14.80;99.50;;;;;;4949736;28;82835;-86
2021/05/16 07:13:04;;;;;;;6.47;5.97;;;14.70;99.70;;;;;;4966064;28;82120;-85
2021/05/16 07:15:31;;;;;;;3.92;3.72;;;14.80;99.90;;;;;;4959939;28;81817;-83
2021/05/16 07:17:56;;;;;;;8.25;7.95;;;15.00;99.40;;;;;;4955277;28;82278;-87
2021/05/16 07:20:22;;;;;;;5.00;4.78;;;14.80;97.70;;;;;;4959527;28;81205;-85
2021/05/16 07:22:49;;;;;;;6.10;5.80;;;14.70;97.30;;;;;;4966060;28;81744;-84
2021/05/16 07:25:17;;;;;;;4.63;4.43;;;14.70;96.60;;;;;;4944530;28;85795;-85
2021/05/16 07:27:43;;;;;;;6.35;5.95;;;14.70;97.00;;;;;;4957158;28;82160;-86
2021/05/16 07:30:09;;;;;;;6.15;5.93;;;14.60;96.70;;;;;;4948690;28;81989;-85
2021/05/16 07:32:35;;;;;;;7.97;7.68;;;14.80;99.30;;;;;;4950899;28;82104;-87
2021/05/16 07:35:01;;;;;;;8.07;7.78;;;14.50;96.40;;;;;;4948454;28;83311;-84
2021/05/16 07:37:27;;;;;;;7.18;6.88;;;14.60;95.80;;;;;;4941919;28;83036;-85
2021/05/16 07:39:52;;;;;;;6.55;6.32;;;14.70;95.80;;;;;;4950041;28;81273;-86
2021/05/16 07:42:18;;;;;;;4.60;4.47;;;14.70;95.60;;;;;;4943432;28;82055;-85
2021/05/16 07:44:45;;;;;;;4.30;4.10;;;14.90;94.80;;;;;;4947951;28;83350;-87
2021/05/16 07:47:11;;;;;;;2.50;2.40;;;15.00;93.70;;;;;;4947670;28;83288;-85
2021/05/16 07:49:37;;;;;;;6.93;6.72;;;15.00;92.90;;;;;;4935452;28;81926;-85
2021/05/16 07:52:05;;;;;;;5.20;5.00;;;15.00;92.10;;;;;;4949792;28;81780;-85
2021/05/16 07:54:31;;;;;;;5.15;4.90;;;15.00;91.20;;;;;;4943854;28;81971;-86
2021/05/16 07:56:58;;;;;;;6.75;6.28;;;15.00;91.70;;;;;;4943238;28;81845;-84
2021/05/16 07:59:24;;;;;;;5.90;5.70;;;14.90;92.80;;;;;;4949107;28;82761;-85
2021/05/16 08:01:50;;;;;;;4.88;4.57;;;15.00;92.80;;;;;;4947686;28;82060;-86
2021/05/16 08:04:16;;;;;;;4.05;3.90;;;15.10;93.10;;;;;;4950169;28;81880;-86
2021/05/16 08:06:42;;;;;;;4.25;4.10;;;15.20;91.90;;;;;;4944324;28;83357;-87
2021/05/16 08:09:07;;;;;;;4.20;3.97;;;15.20;92.30;;;;;;4946199;28;81354;-86
2021/05/16 08:11:33;;;;;;;6.53;6.32;;;15.30;92.50;;;;;;4950723;28;82981;-84
2021/05/16 08:13:59;;;;;;;8.90;8.60;;;15.30;91.90;;;;;;4949714;28;82547;-85
2021/05/16 08:16:25;;;;;;;12.40;11.90;;;15.20;92.40;;;;;;4951233;28;81846;-85
2021/05/16 08:18:52;;;;;;;8.40;8.10;;;15.30;90.40;;;;;;4947962;28;82662;-87
2021/05/16 08:21:19;;;;;;;4.80;4.60;;;15.30;90.80;;;;;;4934119;28;83830;-85
2021/05/16 08:23:45;;;;;;;8.57;8.20;;;15.50;90.20;;;;;;4952218;28;84108;-86
2021/05/16 08:26:11;;;;;;;12.93;12.40;;;15.50;90.50;;;;;;4943773;28;82666;-86
2021/05/16 08:28:36;;;;;;;8.35;8.05;;;15.50;90.30;;;;;;4952341;28;82535;-86
2021/05/16 08:31:02;;;;;;;6.80;6.38;;;15.50;90.70;;;;;;4952483;28;82170;-87
2021/05/16 08:33:28;;;;;;;8.18;7.88;;;15.40;90.10;;;;;;4942035;28;82393;-85
2021/05/16 08:35:54;;;;;;;7.35;7.05;;;15.50;90.30;;;;;;4936091;28;83317;-87
2021/05/16 08:38:20;;;;;;;9.50;9.10;;;15.30;90.60;;;;;;4943273;28;82135;-87
2021/05/16 08:40:45;;;;;;;10.55;10.15;;;15.20;91.10;;;;;;4953056;28;81516;-87
2021/05/16 08:43:11;;;;;;;9.73;9.13;;;15.50;91.10;;;;;;4951339;28;82473;-87
2021/05/16 08:45:38;;;;;;;10.45;9.85;;;;;;;;;;4916934;28;82594;-88
2021/05/16 08:48:04;;;;;;;13.25;12.65;;;15.40;91.10;;;;;;4929748;28;82378;-85
2021/05/16 08:50:30;;;;;;;10.48;10.07;;;15.40;92.20;;;;;;4948479;28;82904;-84
2021/05/16 08:52:56;;;;;;;11.75;11.15;;;15.40;92.00;;;;;;4946913;28;82543;-84
2021/05/16 08:55:22;;;;;;;10.55;10.05;;;15.50;91.70;;;;;;4945632;28;83636;-85
2021/05/16 08:57:48;;;;;;;5.97;5.68;;;15.70;91.40;;;;;;4939059;28;82682;-87
2021/05/16 09:00:23;;;;;;;6.63;6.32;;;15.90;90.90;;;;;;4922806;28;82092;-85
2021/05/16 09:03:19;;;;;;;8.77;8.27;;;17.50;90.00;;;;;;4944382;28;82683;-86
2021/05/16 09:05:50;;;;;;;5.82;5.50;;;18.10;84.00;;;;;;4932141;28;82327;-88
2021/05/16 09:08:17;;;;;;;5.15;4.85;;;18.30;81.40;;;;;;4945967;28;81754;-86
2021/05/16 09:10:50;;;;;;;6.82;6.53;;;18.40;80.90;;;;;;4949491;28;82032;-86
2021/05/16 09:13:27;;;;;;;12.48;11.93;;;19.50;79.40;;;;;;4950281;28;82932;-86
2021/05/16 09:16:15;;;;;;;10.20;9.80;;;21.70;74.00;;;;;;4951799;28;84356;-87
2021/05/16 09:18:46;;;;;;;7.15;6.78;;;22.50;64.10;;;;;;4955392;28;82605;-88
2021/05/16 09:21:25;;;;;;;7.90;7.30;;;22.50;64.60;;;;;;4952600;28;82414;-86
2021/05/16 09:24:04;;;;;;;27.60;26.60;;;23.20;64.90;;;;;;4951799;28;81781;-88
2021/05/16 09:26:50;;;;;;;14.93;14.13;;;23.70;59.60;;;;;;4943957;28;82735;-87
2021/05/16 09:29:30;;;;;;;35.22;33.80;;;24.70;55.20;;;;;;4938390;28;83903;-87
2021/05/16 09:32:01;;;;;;;39.67;38.10;;;24.90;53.60;;;;;;4946536;28;82647;-87
2021/05/16 09:34:28;;;;;;;49.28;47.38;;;25.70;52.80;;;;;;4927674;28;82776;-87
2021/05/16 09:36:54;;;;;;;14.73;14.02;;;26.20;48.30;;;;;;4945849;28;86167;-87
2021/05/16 09:39:31;;;;;;;17.45;16.77;;;26.50;50.60;;;;;;4946765;28;84053;-87
2021/05/16 09:41:57;;;;;;;39.90;38.28;;;26.80;48.10;;;;;;4941262;28;82141;-87
2021/05/16 09:44:31;;;;;;;70.97;68.35;;;26.40;46.90;;;;;;4945286;28;83751;-85
2021/05/16 09:47:15;;;;;;;109.32;105.13;;;26.30;48.00;;;;;;4937702;28;83454;-86
2021/05/16 09:49:48;;;;;;;88.10;84.60;;;26.10;47.00;;;;;;4945876;28;84303;-86
2021/05/16 09:52:20;;;;;;;103.13;99.18;;;26.10;47.00;;;;;;4950605;28;82701;-86
2021/05/16 09:54:54;;;;;;;43.80;42.03;;;27.90;44.10;;;;;;4949150;28;83007;-87
2021/05/16 09:57:20;;;;;;;93.07;89.47;;;;;;;;;;4944432;28;82408;-86
2021/05/16 09:59:47;;;;;;;79.95;76.78;;;;;;;;;;4952561;28;82745;-85
2021/05/16 10:02:16;;;;;;;56.72;54.58;;;27.60;43.80;;;;;;4908880;28;83536;-88
2021/05/16 10:04:45;;;;;;;34.60;33.23;;;27.00;43.90;;;;;;4941521;28;84382;-84
2021/05/16 10:07:12;;;;;;;25.27;24.27;;;25.50;46.60;;;;;;4950912;28;82662;-87
2021/05/16 10:09:38;;;;;;;22.13;21.20;;;25.50;47.10;;;;;;4944333;28;83409;-87
2021/05/16 10:12:05;;;;;;;17.63;16.92;;;25.10;46.10;;;;;;4934247;28;82757;-85
2021/05/16 10:14:35;;;;;;;14.07;13.38;;;24.10;47.30;;;;;;4948305;28;83324;-86
2021/05/16 10:17:01;;;;;;;18.23;17.23;;;22.70;49.40;;;;;;4940126;28;82573;-85
2021/05/16 10:19:36;;;;;;;53.00;50.80;;;23.60;48.30;;;;;;4947775;28;83163;-83
2021/05/16 10:22:09;;;;;;;21.90;21.00;;;23.30;49.20;;;;;;4952309;28;82515;-84
2021/05/16 10:24:38;;;;;;;21.05;20.23;;;22.20;50.80;;;;;;4952290;28;83008;-85
2021/05/16 10:27:16;;;;;;;12.05;11.55;;;21.40;51.40;;;;;;4950202;28;82652;-85
2021/05/16 10:29:51;;;;;;;39.05;37.45;;;21.30;51.10;;;;;;4951846;28;83049;-83
2021/05/16 10:32:38;;;;;;;49.28;47.38;;;21.00;54.60;;;;;;4944451;28;82541;-84
2021/05/16 10:35:05;;;;;;;13.02;12.25;;;20.60;56.70;;;;;;4951839;28;82636;-84
2021/05/16 10:37:54;;;;;;;38.00;36.45;;;20.40;56.00;;;;;;4950817;28;83859;-86
2021/05/16 10:40:35;;;;;;;13.07;12.40;;;20.30;56.30;;;;;;4946497;28;86128;-87
2021/05/16 10:43:00;;;;;;;11.82;11.27;;;20.60;54.70;;;;;;4945367;28;82696;-84
2021/05/16 10:45:33;;;;;;;17.13;16.23;;;19.90;56.30;;;;;;4945598;28;82608;-84
2021/05/16 10:48:12;;;;;;;9.68;9.10;;;20.70;58.60;;;;;;4951350;28;83407;-84
2021/05/16 10:50:38;;;;;;;6.32;6.03;;;19.60;57.90;;;;;;4951516;28;83535;-84
2021/05/16 10:53:54;;;;;;;8.65;8.27;;;20.00;60.10;;;;;;4929777;28;82950;-84
2021/05/16 10:56:28;;;;;;;7.38;6.97;;;20.10;61.70;;;;;;4961091;28;84598;-85
2021/05/16 10:59:35;;;;;;;10.68;10.00;;;19.10;60.40;;;;;;4963757;28;82132;-83
2021/05/16 11:02:01;;;;;;;9.50;9.10;;;;;;;;;;4946572;28;82617;-83
2021/05/16 11:05:03;;;;;;;6.00;5.70;;;19.40;61.60;;;;;;4963352;28;82820;-83
2021/05/16 11:07:34;;;;;;;7.38;6.97;;;19.20;57.20;;;;;;4928121;28;82476;-84
2021/05/16 11:10:29;;;;;;;7.57;7.18;;;18.80;54.70;;;;;;4954313;28;83134;-85
2021/05/16 11:13:16;;;;;;;9.15;8.75;;;19.10;55.80;;;;;;4930369;28;83014;-85
2021/05/16 11:15:50;;;;;;;7.18;6.88;;;18.70;58.00;;;;;;4954762;28;81456;-86
2021/05/16 11:18:19;;;;;;;5.93;5.53;;;20.40;55.80;;;;;;4944816;28;81945;-84
2021/05/16 11:20:56;;;;;;;7.63;7.22;;;19.60;49.00;;;;;;4956844;28;82047;-83
2021/05/16 11:23:33;;;;;;;8.65;8.13;;;19.50;49.80;;;;;;4952869;28;82780;-85
2021/05/16 11:29:18;;;;;;;5.30;5.10;;;18.70;53.50;;;;;;4977805;22;83651;-86
2021/05/16 11:31:43;;;;;;;8.10;7.80;;;18.60;55.30;;;;;;4946995;28;81691;-86
2021/05/16 11:34:09;;;;;;;6.75;6.45;;;;;;;;;;4960229;28;81742;-84
2021/05/16 11:36:39;;;;;;;7.35;6.95;;;18.60;50.50;;;;;;4968279;28;81367;-84
2021/05/16 11:39:08;;;;;;;6.40;6.05;;;18.30;50.40;;;;;;4969285;28;82171;-83
2021/05/16 11:41:43;;;;;;;4.53;4.32;;;18.30;50.80;;;;;;4939507;28;84325;-83
2021/05/16 11:44:11;;;;;;;16.35;15.52;;;18.50;54.50;;;;;;4953214;28;81932;-84
2021/05/16 11:46:42;;;;;;;17.65;16.75;;;17.90;54.80;;;;;;4948255;28;82557;-84
2021/05/16 11:49:23;;;;;;;13.88;13.38;;;17.90;55.40;;;;;;4948947;28;83103;-84
2021/05/16 11:51:49;;;;;;;5.82;5.32;;;18.40;52.70;;;;;;4929509;28;83675;-84
2021/05/16 11:54:15;;;;;;;7.20;6.65;;;18.80;60.00;;;;;;4949166;28;83630;-84
2021/05/16 11:56:48;;;;;;;6.85;6.55;;;18.20;55.90;;;;;;4951704;28;83273;-84
2021/05/16 11:59:15;;;;;;;8.45;8.05;;;18.00;62.70;;;;;;4945286;28;82018;-84
2021/05/16 12:01:47;;;;;;;6.10;5.78;;;18.20;58.50;;;;;;4949731;28;81953;-82
2021/05/16 12:04:16;;;;;;;8.60;8.10;;;17.80;63.00;;;;;;4925594;28;81832;-84
2021/05/16 12:06:50;;;;;;;4.50;4.30;;;17.40;63.90;;;;;;4950120;28;83099;-84
2021/05/16 12:09:20;;;;;;;11.02;10.43;;;17.40;66.00;;;;;;4950084;28;82059;-82
2021/05/16 12:11:52;;;;;;;9.37;8.97;;;16.70;66.00;;;;;;4948085;28;84530;-87
2021/05/16 12:14:22;;;;;;;7.72;7.32;;;16.40;66.60;;;;;;4951310;28;82917;-87
2021/05/16 12:16:54;;;;;;;7.97;7.68;;;16.40;69.40;;;;;;4952048;28;81839;-86
2021/05/16 12:19:21;;;;;;;7.38;6.97;;;16.10;71.30;;;;;;4951141;28;82396;-86
2021/05/16 12:21:50;;;;;;;8.90;8.40;;;15.80;71.80;;;;;;4951581;28;82361;-84
2021/05/16 12:24:21;;;;;;;8.50;8.20;;;15.90;72.00;;;;;;4932822;28;82159;-84
2021/05/16 12:26:48;;;;;;;8.30;7.90;;;15.80;74.30;;;;;;4949882;28;82068;-84
2021/05/16 12:29:18;;;;;;;15.43;14.82;;;15.80;75.00;;;;;;4945768;28;82197;-82
2021/05/16 12:31:45;;;;;;;16.77;15.98;;;16.40;74.80;;;;;;4946737;28;82720;-85
2021/05/16 12:34:15;;;;;;;12.45;11.95;;;16.10;76.60;;;;;;4949076;28;83200;-84
2021/05/16 12:36:59;;;;;;;17.45;16.58;;;16.50;75.20;;;;;;4948371;28;82490;-85
2021/05/16 12:39:43;;;;;;;7.82;7.50;;;15.90;74.40;;;;;;4946409;28;83662;-86
2021/05/16 12:42:36;;;;;;;6.25;6.03;;;16.50;77.30;;;;;;4945247;28;83408;-85
2021/05/16 12:45:24;;;;;;;7.40;7.10;;;16.10;73.00;;;;;;4944266;28;82119;-84
2021/05/16 12:48:07;;;;;;;14.43;13.82;;;15.90;76.30;;;;;;4949798;28;83540;-86
2021/05/16 12:50:48;;;;;;;13.48;12.88;;;17.80;74.40;;;;;;4940430;28;86443;-87
2021/05/16 12:53:31;;;;;;;;;;;17.20;74.20;;;;;;4946138;28;83235;-87
2021/05/16 12:56:21;;;;;;;6.53;6.22;;;18.40;75.20;;;;;;4950186;28;83761;-87
2021/05/16 13:01:25;;;;;;;9.45;9.10;;;22.10;59.80;;;;;;4947195;28;83538;-88
2021/05/16 13:03:57;;;;;;;10.10;9.60;;;22.00;58.70;;;;;;4954525;28;83154;-87
2021/05/16 13:06:42;;;;;;;19.58;18.77;;;22.40;58.50;;;;;;4954525;28;82706;-87
2021/05/16 13:09:16;;;;;;;23.02;22.13;;;22.10;58.30;;;;;;4948995;28;81987;-87
2021/05/16 13:11:57;;;;;;;17.13;16.23;;;22.10;62.10;;;;;;4952676;28;82181;-85
2021/05/16 13:14:39;;;;;;;26.25;24.55;;;22.10;61.90;;;;;;4955667;28;82522;-87
2021/05/16 13:17:18;;;;;;;57.47;54.45;;;22.10;62.30;;;;;;4968058;28;82516;-85
2021/05/16 13:19:53;;;;;;;13.50;12.30;;;22.70;60.90;;;;;;4957645;28;81688;-84
2021/05/16 13:22:39;;;;;;;18.42;17.45;;;22.80;59.50;;;;;;4962225;28;81860;-85
2021/05/16 13:25:14;;;;;;;12.13;11.52;;;22.30;55.20;;;;;;5066571;22;84917;-86
2021/05/16 13:27:41;;;;;;;12.95;12.30;;;;;;;;;;4967955;28;82973;-84
2021/05/16 13:30:09;;;;;;;41.70;39.90;;;22.10;54.00;;;;;;4970200;28;82793;-85
2021/05/16 13:32:35;;;;;;;10.05;9.40;;;21.40;56.60;;;;;;4967334;28;83568;-86
2021/05/16 13:35:01;;;;;;;10.00;9.57;;;;;;;;;;4966146;28;82483;-84
2021/05/16 13:37:27;;;;;;;8.00;7.70;;;21.10;57.80;;;;;;4953932;28;81221;-83
2021/05/16 13:39:53;;;;;;;8.43;8.07;;;21.20;59.20;;;;;;4969740;28;83994;-86
2021/05/16 13:42:20;;;;;;;10.98;10.52;;;20.10;60.00;;;;;;4967181;28;82314;-89
2021/05/16 13:44:47;;;;;;;5.50;5.30;;;20.20;61.00;;;;;;4958813;28;82830;-84
2021/05/16 13:47:20;;;;;;;6.07;5.65;;;20.00;61.30;;;;;;4965670;28;81752;-88
2021/05/16 13:49:46;;;;;;;7.78;7.47;;;19.90;63.50;;;;;;4965572;28;81692;-83
2021/05/16 13:52:13;;;;;;;17.90;17.02;;;19.70;64.30;;;;;;4964270;28;82535;-86
2021/05/16 13:54:39;;;;;;;16.25;15.35;;;19.50;65.30;;;;;;4960653;28;82926;-86
2021/05/16 13:57:05;;;;;;;10.27;9.68;;;19.30;66.30;;;;;;4950617;28;83070;-86
2021/05/16 13:59:30;;;;;;;11.93;11.43;;;18.60;67.70;;;;;;4965074;28;82010;-86
2021/05/16 14:01:57;;;;;;;14.07;13.57;;;18.70;68.00;;;;;;4945628;28;82949;-86
2021/05/16 14:04:22;;;;;;;14.98;14.30;;;18.60;69.00;;;;;;4955006;28;82399;-87
2021/05/16 14:06:48;;;;;;;24.45;23.45;;;18.70;68.90;;;;;;4959606;28;81916;-86
2021/05/16 14:09:14;;;;;;;8.90;8.50;;;;;;;;;;4958135;28;81843;-86
2021/05/16 14:11:41;;;;;;;9.73;9.32;;;17.90;72.70;;;;;;4957080;28;82112;-86
2021/05/16 14:14:07;;;;;;;12.75;12.15;;;18.10;71.90;;;;;;4957553;28;81180;-87
2021/05/16 14:16:34;;;;;;;17.45;16.85;;;18.20;70.60;;;;;;4957424;28;82708;-86
2021/05/16 14:19:00;;;;;;;12.10;11.55;;;18.30;72.20;;;;;;4962446;28;82114;-85
2021/05/16 14:21:27;;;;;;;13.07;12.57;;;17.70;70.10;;;;;;4939251;28;82924;-86
2021/05/16 14:23:53;;;;;;;8.45;8.05;;;17.70;70.60;;;;;;4937152;28;82811;-86
2021/05/16 14:26:19;;;;;;;10.02;9.57;;;17.50;73.10;;;;;;4933067;28;84017;-84
2021/05/16 14:28:44;;;;;;;8.23;7.85;;;16.80;78.00;;;;;;4922045;28;81733;-87
2021/05/16 14:31:11;;;;;;;10.93;10.35;;;;;;;;;;4919090;28;83110;-84
2021/05/16 14:33:37;;;;;;;13.02;12.43;;;16.50;82.90;;;;;;4915076;28;83297;-84
2021/05/16 14:36:03;;;;;;;6.95;6.45;;;16.20;82.60;;;;;;4915600;28;82862;-86
2021/05/16 14:38:29;;;;;;;6.15;5.85;;;16.10;85.40;;;;;;4922280;28;82584;-85
2021/05/16 14:40:55;;;;;;;11.93;11.30;;;;;;;;;;4912859;28;82219;-84
2021/05/16 14:43:21;;;;;;;7.85;7.45;;;15.60;88.80;;;;;;4922842;28;82875;-84
2021/05/16 14:45:47;;;;;;;7.82;7.30;;;15.60;90.80;;;;;;4916806;28;82979;-84
2021/05/16 14:48:13;;;;;;;9.30;8.82;;;;;;;;;;4932788;28;85738;-84
2021/05/16 14:50:42;;;;;;;11.05;10.55;;;15.00;92.60;;;;;;4919802;28;82936;-85
2021/05/16 14:53:09;;;;;;;11.30;10.80;;;14.60;93.30;;;;;;4920908;28;82666;-85
2021/05/16 14:55:35;;;;;;;13.00;12.38;;;15.10;95.10;;;;;;4918367;28;84096;-85
2021/05/16 14:58:03;;;;;;;11.07;10.48;;;14.90;96.20;;;;;;4918349;28;83153;-86
2021/05/16 15:00:29;;;;;;;9.18;8.57;;;15.10;97.30;;;;;;4922938;28;83141;-86
2021/05/16 15:02:55;;;;;;;8.45;8.05;;;;;;;;;;4922202;28;81489;-84
2021/05/16 15:05:21;;;;;;;8.25;7.75;;;14.30;99.90;;;;;;4917196;28;81866;-85
2021/05/16 15:07:49;;;;;;;10.35;9.65;;;;;;;;;;4919950;28;81938;-84
2021/05/16 15:10:15;;;;;;;10.55;9.95;;;;;;;;;;4922296;28;84256;-84
2021/05/16 15:12:40;;;;;;;12.23;11.63;;;14.30;99.90;;;;;;4915256;28;82929;-85
2021/05/16 15:15:08;;;;;;;9.57;9.15;;;13.70;99.90;;;;;;4920936;28;82602;-84
2021/05/16 15:17:34;;;;;;;17.27;16.42;;;14.00;99.90;;;;;;4920789;28;82128;-83
2021/05/16 15:20:00;;;;;;;8.00;7.18;;;14.00;99.90;;;;;;4916957;28;82768;-82
2021/05/16 15:22:26;;;;;;;8.40;7.78;;;14.00;99.90;;;;;;4916146;28;82367;-83
2021/05/16 15:24:53;;;;;;;8.57;8.05;;;13.80;99.90;;;;;;4913702;28;81944;-82
2021/05/16 15:27:18;;;;;;;9.02;8.23;;;14.10;99.90;;;;;;4917598;28;85297;-84
2021/05/16 15:29:44;;;;;;;10.25;9.63;;;14.10;99.90;;;;;;4917328;28;82343;-82
2021/05/16 15:32:11;;;;;;;8.98;8.15;;;;;;;;;;4920763;28;81872;-84
2021/05/16 15:34:39;;;;;;;7.90;7.10;;;13.80;99.90;;;;;;4928556;28;82714;-87
2021/05/16 15:37:06;;;;;;;9.15;8.30;;;13.20;99.90;;;;;;4933675;28;81980;-87
2021/05/16 15:39:33;;;;;;;6.35;5.00;;;13.60;99.90;;;;;;4931003;28;82243;-86
2021/05/16 15:42:02;;;;;;;9.15;8.57;;;13.40;99.90;;;;;;4944744;28;81963;-83
2021/05/16 15:44:29;;;;;;;7.63;7.22;;;13.40;99.90;;;;;;4936970;28;82104;-87
2021/05/16 15:46:56;;;;;;;7.05;6.55;;;13.40;99.90;;;;;;4930068;28;82074;-86
2021/05/16 15:49:21;;;;;;;9.57;8.88;;;13.50;99.90;;;;;;4942738;28;83476;-84
2021/05/16 15:51:48;;;;;;;9.07;8.48;;;;;;;;;;4942666;28;83229;-83
2021/05/16 15:54:14;;;;;;;8.90;8.27;;;13.20;99.90;;;;;;4936517;28;81167;-84
2021/05/16 15:56:40;;;;;;;8.15;7.53;;;13.30;99.90;;;;;;4928781;28;82679;-84
2021/05/16 15:59:06;;;;;;;6.65;6.05;;;13.40;99.90;;;;;;4923728;28;83148;-84
2021/05/16 16:01:34;;;;;;;9.32;8.57;;;;;;;;;;4924184;28;82913;-83
2021/05/16 16:04:00;;;;;;;7.75;7.22;;;13.40;99.90;;;;;;4927685;28;82004;-83
2021/05/16 16:06:26;;;;;;;8.77;7.97;;;13.40;99.90;;;;;;4926303;28;82051;-84
2021/05/16 16:08:54;;;;;;;8.05;7.45;;;13.40;99.90;;;;;;4915827;28;82282;-82
2021/05/16 16:11:20;;;;;;;6.00;5.43;;;13.40;99.90;;;;;;4921442;28;82054;-84
2021/05/16 16:13:46;;;;;;;9.40;8.73;;;;;;;;;;4919456;28;81999;-82
2021/05/16 16:16:12;;;;;;;7.82;7.32;;;14.20;99.90;;;;;;4926011;28;82339;-83
2021/05/16 16:18:39;;;;;;;8.00;7.32;;;13.60;99.90;;;;;;4917390;28;82927;-85
2021/05/16 16:21:06;;;;;;;8.13;7.57;;;13.60;99.90;;;;;;4919746;28;84835;-85
2021/05/16 16:23:31;;;;;;;6.82;6.47;;;14.00;99.90;;;;;;4910239;28;82786;-84
2021/05/16 16:25:57;;;;;;;6.43;6.03;;;13.80;99.90;;;;;;4927780;28;81813;-86
2021/05/16 16:28:23;;;;;;;7.80;7.38;;;;;;;;;;4934439;28;83253;-85
2021/05/16 16:30:54;;;;;;;7.00;6.57;;;14.00;99.90;;;;;;4941459;28;82556;-86
2021/05/16 16:33:19;;;;;;;8.00;7.43;;;14.10;99.90;;;;;;4938966;28;82674;-84
2021/05/16 16:35:45;;;;;;;10.52;9.80;;;14.00;99.90;;;;;;4942222;28;82572;-85
2021/05/16 16:38:11;;;;;;;10.10;9.40;;;;;;;;;;4941598;28;82193;-84
2021/05/16 16:40:37;;;;;;;7.18;6.72;;;;;;;;;;4938544;28;81650;-85
2021/05/16 16:43:03;;;;;;;8.95;8.05;;;13.20;99.90;;;;;;4929301;28;82026;-86
2021/05/16 16:45:29;;;;;;;4.90;4.57;;;13.90;99.90;;;;;;4941978;28;82108;-87
2021/05/16 16:47:54;;;;;;;5.85;5.35;;;13.80;99.90;;;;;;4938096;28;82998;-88
2021/05/16 16:50:20;;;;;;;6.78;6.18;;;13.00;99.90;;;;;;4941599;28;82977;-87
2021/05/16 16:52:47;;;;;;;7.75;7.38;;;13.10;99.90;;;;;;4944152;28;81781;-87
2021/05/16 16:55:15;;;;;;;6.13;5.78;;;13.10;99.90;;;;;;4946101;28;81658;-86
2021/05/16 16:57:44;;;;;;;7.20;6.85;;;13.00;99.90;;;;;;4941863;28;82623;-87
2021/05/16 17:00:11;;;;;;;4.90;4.60;;;13.00;99.90;;;;;;4942663;28;82040;-86
2021/05/16 17:02:37;;;;;;;5.88;5.65;;;12.50;99.90;;;;;;4946640;28;81942;-87
2021/05/16 17:05:03;;;;;;;5.60;5.25;;;12.90;99.90;;;;;;4941379;28;83532;-84
2021/05/16 17:07:29;;;;;;;6.38;5.97;;;12.30;99.90;;;;;;4928351;28;84668;-84